sensor_id;sensor_type;location;lat;lon;timestamp;pressure;altitude;pressure_sealevel;temperature;humidity
12197;BME280;6161;43.014;25.840;2022-09-12T00:01:28;99336.53;;;21.01;nan
12197;BME280;6161;43.014;25.840;2022-09-12T00:03:56;99334.19;;;21.04;nan
12197;BME280;6161;43.014;25.840;2022-09-12T00:06:28;99361.88;;;21.01;nan
12197;BME280;6161;43.014;25.840;2022-09-12T00:08:56;99337.41;;;20.95;nan
12197;BME280;6161;43.014;25.840;2022-09-12T00:11:22;99316.03;;;20.92;nan
12197;BME280;6161;43.014;25.840;2022-09-12T00:13:48;99363.88;;;20.88;nan
12197;BME280;6161;43.014;25.840;2022-09-12T00:18:41;99316.09;;;20.85;nan
12197;BME280;6161;43.014;25.840;2022-09-12T00:21:06;99351.31;;;20.86;nan
12197;BME280;6161;43.014;25.840;2022-09-12T00:23:32;99362.81;;;20.89;nan
12197;BME280;6161;43.014;25.840;2022-09-12T00:25:58;99360.09;;;20.89;nan
12197;BME280;6161;43.014;25.840;2022-09-12T00:28:24;99337.47;;;20.88;nan
12197;BME280;6161;43.014;25.840;2022-09-12T00:30:49;99329.16;;;20.76;nan
12197;BME280;6161;43.014;25.840;2022-09-12T00:33:16;99306.91;;;20.79;nan
12197;BME280;6161;43.014;25.840;2022-09-12T00:38:08;99338.75;;;20.85;nan
12197;BME280;6161;43.014;25.840;2022-09-12T00:40:34;99329.50;;;20.86;nan
12197;BME280;6161;43.014;25.840;2022-09-12T00:43:01;99350.66;;;20.91;nan
12197;BME280;6161;43.014;25.840;2022-09-12T00:45:28;99338.69;;;20.92;nan
12197;BME280;6161;43.014;25.840;2022-09-12T00:47:57;99341.84;;;20.89;nan
12197;BME280;6161;43.014;25.840;2022-09-12T00:50:26;99401.22;;;20.87;nan
12197;BME280;6161;43.014;25.840;2022-09-12T00:52:56;99335.34;;;20.90;nan
12197;BME280;6161;43.014;25.840;2022-09-12T00:55:31;99316.09;;;20.85;nan
12197;BME280;6161;43.014;25.840;2022-09-12T00:58:05;99314.41;;;20.84;nan
12197;BME280;6161;43.014;25.840;2022-09-12T01:00:33;99289.28;;;20.82;nan
12197;BME280;6161;43.014;25.840;2022-09-12T01:03:03;99336.22;;;20.84;nan
12197;BME280;6161;43.014;25.840;2022-09-12T01:05:33;99324.31;;;20.78;nan
12197;BME280;6161;43.014;25.840;2022-09-12T01:10:26;99270.09;;;20.70;nan
12197;BME280;6161;43.014;25.840;2022-09-12T01:12:52;99304.84;;;20.75;nan
12197;BME280;6161;43.014;25.840;2022-09-12T01:15:18;99310.47;;;20.80;nan
12197;BME280;6161;43.014;25.840;2022-09-12T01:20:47;99319.22;;;20.89;nan
12197;BME280;6161;43.014;25.840;2022-09-12T01:34:59;99310.69;;;20.78;nan
12197;BME280;6161;43.014;25.840;2022-09-12T01:37:35;99291.44;;;20.73;nan
12197;BME280;6161;43.014;25.840;2022-09-12T01:40:08;99295.63;;;20.76;nan
12197;BME280;6161;43.014;25.840;2022-09-12T01:48:26;99271.69;;;20.78;nan
12197;BME280;6161;43.014;25.840;2022-09-12T01:51:06;99247.47;;;20.70;nan
12197;BME280;6161;43.014;25.840;2022-09-12T01:53:38;99302.81;;;20.63;nan
12197;BME280;6161;43.014;25.840;2022-09-12T01:56:16;99284.41;;;20.59;nan
12197;BME280;6161;43.014;25.840;2022-09-12T01:58:53;99248.59;;;20.55;nan
12197;BME280;6161;43.014;25.840;2022-09-12T02:06:46;99295.75;;;20.56;nan
12197;BME280;6161;43.014;25.840;2022-09-12T02:09:28;99261.78;;;20.58;nan
12197;BME280;6161;43.014;25.840;2022-09-12T02:11:58;99259.69;;;20.60;nan
12197;BME280;6161;43.014;25.840;2022-09-12T02:14:29;99288.59;;;20.61;nan
12197;BME280;6161;43.014;25.840;2022-09-12T02:17:04;99364.88;;;20.61;nan
12197;BME280;6161;43.014;25.840;2022-09-12T02:19:45;99293.66;;;20.58;nan
12197;BME280;6161;43.014;25.840;2022-09-12T02:22:14;99305.00;;;20.55;nan
12197;BME280;6161;43.014;25.840;2022-09-12T02:24:43;99218.19;;;20.58;nan
12197;BME280;6161;43.014;25.840;2022-09-12T02:27:16;99307.66;;;20.61;nan
12197;BME280;6161;43.014;25.840;2022-09-12T02:29:43;99302.81;;;20.63;nan
12197;BME280;6161;43.014;25.840;2022-09-12T02:35:02;99294.38;;;20.72;nan
12197;BME280;6161;43.014;25.840;2022-09-12T02:40:06;99299.41;;;20.75;nan
12197;BME280;6161;43.014;25.840;2022-09-12T02:42:35;99260.81;;;20.78;nan
12197;BME280;6161;43.014;25.840;2022-09-12T02:45:01;99280.53;;;20.73;nan
12197;BME280;6161;43.014;25.840;2022-09-12T02:47:34;99294.44;;;20.65;nan
12197;BME280;6161;43.014;25.840;2022-09-12T02:50:01;99185.69;;;20.57;nan
12197;BME280;6161;43.014;25.840;2022-09-12T02:52:30;99267.22;;;20.58;nan
12197;BME280;6161;43.014;25.840;2022-09-12T02:54:58;99254.69;;;20.57;nan
12197;BME280;6161;43.014;25.840;2022-09-12T02:57:25;99289.28;;;20.50;nan
12197;BME280;6161;43.014;25.840;2022-09-12T02:59:52;99354.50;;;20.38;nan
12197;BME280;6161;43.014;25.840;2022-09-12T03:15:45;99265.69;;;20.37;nan
12197;BME280;6161;43.014;25.840;2022-09-12T03:18:22;99279.88;;;20.39;nan
12197;BME280;6161;43.014;25.840;2022-09-12T03:23:45;99320.44;;;20.22;nan
12197;BME280;6161;43.014;25.840;2022-09-12T03:28:45;99246.50;;;20.19;nan
12197;BME280;6161;43.014;25.840;2022-09-12T03:31:15;99282.13;;;20.17;nan
12197;BME280;6161;43.014;25.840;2022-09-12T03:33:42;99295.94;;;20.16;nan
12197;BME280;6161;43.014;25.840;2022-09-12T03:36:28;99261.63;;;20.15;nan
12197;BME280;6161;43.014;25.840;2022-09-12T03:41:20;99278.59;;;20.10;nan
12197;BME280;6161;43.014;25.840;2022-09-12T03:46:11;99244.03;;;20.11;nan
12197;BME280;6161;43.014;25.840;2022-09-12T03:48:38;99297.69;;;20.04;nan
12197;BME280;6161;43.014;25.840;2022-09-12T03:51:06;99260.81;;;20.08;nan
12197;BME280;6161;43.014;25.840;2022-09-12T03:53:31;99329.91;;;20.07;nan
12197;BME280;6161;43.014;25.840;2022-09-12T03:55:57;99304.56;;;20.06;nan
12197;BME280;6161;43.014;25.840;2022-09-12T03:58:23;99278.81;;;20.02;nan
12197;BME280;6161;43.014;25.840;2022-09-12T04:00:49;99279.69;;;20.03;nan
12197;BME280;6161;43.014;25.840;2022-09-12T04:03:14;99265.91;;;19.97;nan
12197;BME280;6161;43.014;25.840;2022-09-12T04:05:40;99269.25;;;19.93;nan
12197;BME280;6161;43.014;25.840;2022-09-12T04:08:06;99293.13;;;19.97;nan
12197;BME280;6161;43.014;25.840;2022-09-12T04:10:32;99280.16;;;19.93;nan
12197;BME280;6161;43.014;25.840;2022-09-12T04:12:57;99333.72;;;19.92;nan
12197;BME280;6161;43.014;25.840;2022-09-12T04:15:23;99323.25;;;19.96;nan
12197;BME280;6161;43.014;25.840;2022-09-12T04:17:49;99302.94;;;19.98;nan
12197;BME280;6161;43.014;25.840;2022-09-12T04:20:14;99322.44;;;19.95;nan
12197;BME280;6161;43.014;25.840;2022-09-12T04:22:40;99335.84;;;19.90;nan
12197;BME280;6161;43.014;25.840;2022-09-12T04:25:06;99288.97;;;19.88;nan
12197;BME280;6161;43.014;25.840;2022-09-12T04:27:32;99309.91;;;19.81;nan
12197;BME280;6161;43.014;25.840;2022-09-12T04:32:24;99320.84;;;19.68;nan
12197;BME280;6161;43.014;25.840;2022-09-12T04:34:50;99373.56;;;19.53;nan
12197;BME280;6161;43.014;25.840;2022-09-12T04:37:16;99341.34;;;19.50;nan
12197;BME280;6161;43.014;25.840;2022-09-12T04:39:42;99346.78;;;19.44;nan
12197;BME280;6161;43.014;25.840;2022-09-12T04:42:07;99304.94;;;19.45;nan
12197;BME280;6161;43.014;25.840;2022-09-12T04:44:33;99304.69;;;19.59;nan
12197;BME280;6161;43.014;25.840;2022-09-12T04:49:24;99283.69;;;19.93;nan
12197;BME280;6161;43.014;25.840;2022-09-12T04:51:52;99301.03;;;20.06;nan
12197;BME280;6161;43.014;25.840;2022-09-12T04:54:19;99306.38;;;20.26;nan
12197;BME280;6161;43.014;25.840;2022-09-12T04:56:46;99326.78;;;20.48;nan
12197;BME280;6161;43.014;25.840;2022-09-12T04:59:14;99380.59;;;20.59;nan
12197;BME280;6161;43.014;25.840;2022-09-12T05:04:05;99296.53;;;20.95;nan
12197;BME280;6161;43.014;25.840;2022-09-12T05:06:34;99373.34;;;21.17;nan
12197;BME280;6161;43.014;25.840;2022-09-12T05:09:02;99385.38;;;21.34;nan
12197;BME280;6161;43.014;25.840;2022-09-12T05:11:33;99364.28;;;21.48;nan
12197;BME280;6161;43.014;25.840;2022-09-12T05:13:59;99325.72;;;21.63;nan
12197;BME280;6161;43.014;25.840;2022-09-12T05:16:27;99382.47;;;21.79;nan
12197;BME280;6161;43.014;25.840;2022-09-12T05:18:57;99352.88;;;21.94;nan
12197;BME280;6161;43.014;25.840;2022-09-12T05:21:24;99379.66;;;22.04;nan
12197;BME280;6161;43.014;25.840;2022-09-12T05:23:53;99358.47;;;22.18;nan
12197;BME280;6161;43.014;25.840;2022-09-12T05:28:47;99328.06;;;22.33;nan
12197;BME280;6161;43.014;25.840;2022-09-12T05:31:16;99297.56;;;22.48;nan
12197;BME280;6161;43.014;25.840;2022-09-12T05:36:12;99308.22;;;22.68;nan
12197;BME280;6161;43.014;25.840;2022-09-12T05:38:39;99376.25;;;22.76;nan
12197;BME280;6161;43.014;25.840;2022-09-12T05:41:09;99351.91;;;22.86;nan
12197;BME280;6161;43.014;25.840;2022-09-12T05:43:37;99349.00;;;22.99;nan
12197;BME280;6161;43.014;25.840;2022-09-12T05:46:08;99358.06;;;23.12;nan
12197;BME280;6161;43.014;25.840;2022-09-12T05:48:38;99386.97;;;23.19;nan
12197;BME280;6161;43.014;25.840;2022-09-12T05:51:09;99334.53;;;23.34;nan
12197;BME280;6161;43.014;25.840;2022-09-12T05:53:36;99447.13;;;23.50;nan
12197;BME280;6161;43.014;25.840;2022-09-12T05:56:13;99386.19;;;23.54;nan
12197;BME280;6161;43.014;25.840;2022-09-12T05:58:41;99354.28;;;23.60;nan
12197;BME280;6161;43.014;25.840;2022-09-12T06:03:45;99379.41;;;23.69;nan
12197;BME280;6161;43.014;25.840;2022-09-12T06:06:12;99387.84;;;23.67;nan
12197;BME280;6161;43.014;25.840;2022-09-12T06:08:42;99391.31;;;23.62;nan
12197;BME280;6161;43.014;25.840;2022-09-12T06:11:10;99371.94;;;23.76;nan
12197;BME280;6161;43.014;25.840;2022-09-12T06:13:37;99377.06;;;23.84;nan
12197;BME280;6161;43.014;25.840;2022-09-12T06:16:06;99394.91;;;23.98;nan
12197;BME280;6161;43.014;25.840;2022-09-12T06:18:33;99395.97;;;24.09;nan
12197;BME280;6161;43.014;25.840;2022-09-12T06:21:10;99364.88;;;24.03;nan
12197;BME280;6161;43.014;25.840;2022-09-12T06:23:36;99393.38;;;23.91;nan
12197;BME280;6161;43.014;25.840;2022-09-12T06:26:03;99398.00;;;23.67;nan
12197;BME280;6161;43.014;25.840;2022-09-12T06:28:30;99338.22;;;23.63;nan
12197;BME280;6161;43.014;25.840;2022-09-12T06:31:25;99396.44;;;23.59;nan
12197;BME280;6161;43.014;25.840;2022-09-12T06:33:52;99345.97;;;23.67;nan
12197;BME280;6161;43.014;25.840;2022-09-12T06:36:24;99361.78;;;23.64;nan
12197;BME280;6161;43.014;25.840;2022-09-12T06:38:58;99351.44;;;23.55;nan
12197;BME280;6161;43.014;25.840;2022-09-12T06:41:25;99304.66;;;23.44;nan
12197;BME280;6161;43.014;25.840;2022-09-12T06:43:51;99340.59;;;23.60;nan
12197;BME280;6161;43.014;25.840;2022-09-12T06:46:17;99331.44;;;23.66;nan
12197;BME280;6161;43.014;25.840;2022-09-12T06:48:43;99366.22;;;23.77;nan
12197;BME280;6161;43.014;25.840;2022-09-12T06:51:11;99325.63;;;23.86;nan
12197;BME280;6161;43.014;25.840;2022-09-12T06:53:38;99328.13;;;23.88;nan
12197;BME280;6161;43.014;25.840;2022-09-12T06:58:29;99369.47;;;24.26;nan
12197;BME280;6161;43.014;25.840;2022-09-12T07:01:14;99318.19;;;24.50;nan
12197;BME280;6161;43.014;25.840;2022-09-12T07:06:13;99333.94;;;24.89;nan
12197;BME280;6161;43.014;25.840;2022-09-12T07:08:39;99386.34;;;24.87;nan
12197;BME280;6161;43.014;25.840;2022-09-12T07:11:18;99350.50;;;24.94;nan
12197;BME280;6161;43.014;25.840;2022-09-12T07:13:46;99328.16;;;25.02;nan
12197;BME280;6161;43.014;25.840;2022-09-12T07:16:14;99350.72;;;25.21;nan
12197;BME280;6161;43.014;25.840;2022-09-12T07:18:40;99316.22;;;25.25;nan
12197;BME280;6161;43.014;25.840;2022-09-12T07:21:08;99358.78;;;25.28;nan
12197;BME280;6161;43.014;25.840;2022-09-12T07:23:34;99378.09;;;25.33;nan
12197;BME280;6161;43.014;25.840;2022-09-12T07:26:00;99374.38;;;25.39;nan
12197;BME280;6161;43.014;25.840;2022-09-12T07:28:28;99342.47;;;25.38;nan
12197;BME280;6161;43.014;25.840;2022-09-12T07:35:45;99371.72;;;25.83;nan
12197;BME280;6161;43.014;25.840;2022-09-12T07:38:11;99371.41;;;25.96;nan
12197;BME280;6161;43.014;25.840;2022-09-12T07:40:36;99362.19;;;26.08;nan
12197;BME280;6161;43.014;25.840;2022-09-12T07:43:02;99322.19;;;26.17;nan
12197;BME280;6161;43.014;25.840;2022-09-12T07:45:27;99335.16;;;26.21;nan
12197;BME280;6161;43.014;25.840;2022-09-12T07:47:56;99334.66;;;26.25;nan
12197;BME280;6161;43.014;25.840;2022-09-12T07:50:22;99333.19;;;26.17;nan
12197;BME280;6161;43.014;25.840;2022-09-12T07:52:47;99305.38;;;26.40;nan
12197;BME280;6161;43.014;25.840;2022-09-12T07:55:14;99330.25;;;26.51;nan
12197;BME280;6161;43.014;25.840;2022-09-12T07:57:40;99330.84;;;26.53;nan
12197;BME280;6161;43.014;25.840;2022-09-12T08:00:05;99343.66;;;26.64;nan
12197;BME280;6161;43.014;25.840;2022-09-12T08:02:33;99366.72;;;26.63;nan
12197;BME280;6161;43.014;25.840;2022-09-12T08:04:58;99324.25;;;26.76;nan
12197;BME280;6161;43.014;25.840;2022-09-12T08:09:49;99326.09;;;26.70;nan
12197;BME280;6161;43.014;25.840;2022-09-12T08:12:15;99323.38;;;26.75;nan
12197;BME280;6161;43.014;25.840;2022-09-12T08:14:42;99339.06;;;26.75;nan
12197;BME280;6161;43.014;25.840;2022-09-12T08:17:08;99327.81;;;26.76;nan
12197;BME280;6161;43.014;25.840;2022-09-12T08:19:33;99326.59;;;26.94;nan
12197;BME280;6161;43.014;25.840;2022-09-12T08:21:59;99355.94;;;27.11;nan
12197;BME280;6161;43.014;25.840;2022-09-12T08:24:24;99349.31;;;27.12;nan
12197;BME280;6161;43.014;25.840;2022-09-12T08:26:50;99344.84;;;27.05;nan
12197;BME280;6161;43.014;25.840;2022-09-12T08:29:15;99398.06;;;26.84;nan
12197;BME280;6161;43.014;25.840;2022-09-12T08:31:41;99300.75;;;26.68;nan
12197;BME280;6161;43.014;25.840;2022-09-12T08:34:07;99266.28;;;26.60;nan
12197;BME280;6161;43.014;25.840;2022-09-12T08:36:36;99283.94;;;26.64;nan
12197;BME280;6161;43.014;25.840;2022-09-12T08:39:04;99373.44;;;26.72;nan
12197;BME280;6161;43.014;25.840;2022-09-12T08:41:42;99296.34;;;26.67;nan
12197;BME280;6161;43.014;25.840;2022-09-12T08:47:28;99279.03;;;26.67;nan
12197;BME280;6161;43.014;25.840;2022-09-12T08:54:59;99283.31;;;26.84;nan
12197;BME280;6161;43.014;25.840;2022-09-12T08:57:25;99305.13;;;26.64;nan
12197;BME280;6161;43.014;25.840;2022-09-12T08:59:51;99296.59;;;26.66;nan
12197;BME280;6161;43.014;25.840;2022-09-12T09:08:29;99285.69;;;26.49;nan
12197;BME280;6161;43.014;25.840;2022-09-12T09:14:36;99276.34;;;26.50;nan
12197;BME280;6161;43.014;25.840;2022-09-12T09:19:36;99266.75;;;26.52;nan
12197;BME280;6161;43.014;25.840;2022-09-12T09:22:13;99250.03;;;26.54;nan
12197;BME280;6161;43.014;25.840;2022-09-12T09:27:30;99250.09;;;26.37;nan
12197;BME280;6161;43.014;25.840;2022-09-12T09:29:56;99243.66;;;26.26;nan
12197;BME280;6161;43.014;25.840;2022-09-12T09:32:36;99253.88;;;26.31;nan
12197;BME280;6161;43.014;25.840;2022-09-12T09:40:23;99235.56;;;26.14;nan
12197;BME280;6161;43.014;25.840;2022-09-12T09:45:29;99256.56;;;26.26;nan
12197;BME280;6161;43.014;25.840;2022-09-12T09:48:16;99242.19;;;26.46;nan
12197;BME280;6161;43.014;25.840;2022-09-12T09:53:20;99277.97;;;26.73;nan
12197;BME280;6161;43.014;25.840;2022-09-12T09:55:48;99259.03;;;26.76;nan
12197;BME280;6161;43.014;25.840;2022-09-12T09:58:32;99276.34;;;26.77;nan
12197;BME280;6161;43.014;25.840;2022-09-12T10:01:11;99266.13;;;26.72;nan
12197;BME280;6161;43.014;25.840;2022-09-12T10:03:38;99290.34;;;26.48;nan
12197;BME280;6161;43.014;25.840;2022-09-12T10:08:34;99263.25;;;26.35;nan
12197;BME280;6161;43.014;25.840;2022-09-12T10:11:05;99253.13;;;26.40;nan
12197;BME280;6161;43.014;25.840;2022-09-12T10:13:39;99256.38;;;26.32;nan
12197;BME280;6161;43.014;25.840;2022-09-12T10:18:43;99302.19;;;25.99;nan
12197;BME280;6161;43.014;25.840;2022-09-12T10:21:26;99282.81;;;25.89;nan
12197;BME280;6161;43.014;25.840;2022-09-12T10:24:03;99284.94;;;26.04;nan
12197;BME280;6161;43.014;25.840;2022-09-12T10:26:36;99285.28;;;26.13;nan
12197;BME280;6161;43.014;25.840;2022-09-12T10:29:15;99291.06;;;26.11;nan
12197;BME280;6161;43.014;25.840;2022-09-12T10:31:45;99234.28;;;26.00;nan
12197;BME280;6161;43.014;25.840;2022-09-12T10:36:46;99224.63;;;25.75;nan
12197;BME280;6161;43.014;25.840;2022-09-12T10:39:17;99274.75;;;26.05;nan
12197;BME280;6161;43.014;25.840;2022-09-12T10:41:43;99223.22;;;26.17;nan
12197;BME280;6161;43.014;25.840;2022-09-12T10:44:25;99256.19;;;26.17;nan
12197;BME280;6161;43.014;25.840;2022-09-12T10:46:50;99284.41;;;26.07;nan
12197;BME280;6161;43.014;25.840;2022-09-12T10:49:28;99242.59;;;26.05;nan
12197;BME280;6161;43.014;25.840;2022-09-12T10:51:56;99245.41;;;26.10;nan
12197;BME280;6161;43.014;25.840;2022-09-12T10:54:26;99195.81;;;26.00;nan
12197;BME280;6161;43.014;25.840;2022-09-12T11:02:26;99237.84;;;25.78;nan
12197;BME280;6161;43.014;25.840;2022-09-12T11:16:21;99268.66;;;26.25;nan
12197;BME280;6161;43.014;25.840;2022-09-12T11:21:48;99263.50;;;26.55;nan
12197;BME280;6161;43.014;25.840;2022-09-12T11:30:07;99247.56;;;26.57;nan
12197;BME280;6161;43.014;25.840;2022-09-12T11:35:26;99241.97;;;26.52;nan
12197;BME280;6161;43.014;25.840;2022-09-12T11:37:58;99276.88;;;26.47;nan
12197;BME280;6161;43.014;25.840;2022-09-12T11:43:15;99221.44;;;26.33;nan
12197;BME280;6161;43.014;25.840;2022-09-12T11:45:44;99263.16;;;26.25;nan
12197;BME280;6161;43.014;25.840;2022-09-12T11:50:42;99257.38;;;25.99;nan
12197;BME280;6161;43.014;25.840;2022-09-12T11:53:16;99241.38;;;25.96;nan
12197;BME280;6161;43.014;25.840;2022-09-12T11:55:54;99256.47;;;25.93;nan
12197;BME280;6161;43.014;25.840;2022-09-12T11:58:25;99256.16;;;25.90;nan
12197;BME280;6161;43.014;25.840;2022-09-12T12:00:56;99251.03;;;25.76;nan
12197;BME280;6161;43.014;25.840;2022-09-12T12:03:40;99256.84;;;25.80;nan
12197;BME280;6161;43.014;25.840;2022-09-12T12:06:11;99232.03;;;25.75;nan
12197;BME280;6161;43.014;25.840;2022-09-12T12:08:42;99254.53;;;25.72;nan
12197;BME280;6161;43.014;25.840;2022-09-12T12:11:23;99210.25;;;25.68;nan
12197;BME280;6161;43.014;25.840;2022-09-12T12:19:25;99224.91;;;25.74;nan
12197;BME280;6161;43.014;25.840;2022-09-12T12:22:05;99204.44;;;25.65;nan
12197;BME280;6161;43.014;25.840;2022-09-12T12:24:31;99238.28;;;25.48;nan
12197;BME280;6161;43.014;25.840;2022-09-12T12:27:02;99205.31;;;25.48;nan
12197;BME280;6161;43.014;25.840;2022-09-12T12:29:37;99207.84;;;25.50;nan
12197;BME280;6161;43.014;25.840;2022-09-12T12:34:37;99216.31;;;25.48;nan
12197;BME280;6161;43.014;25.840;2022-09-12T12:45:46;99212.06;;;25.19;nan
12197;BME280;6161;43.014;25.840;2022-09-12T12:47:54;99220.19;;;25.13;nan
12197;BME280;6161;43.014;25.840;2022-09-12T12:50:24;99229.69;;;25.06;nan
12197;BME280;6161;43.014;25.840;2022-09-12T12:55:36;99242.75;;;24.99;nan
12197;BME280;6161;43.014;25.840;2022-09-12T12:58:04;99208.41;;;24.96;nan
12197;BME280;6161;43.014;25.840;2022-09-12T13:05:46;99237.25;;;25.15;nan
12197;BME280;6161;43.014;25.840;2022-09-12T13:10:52;99228.94;;;25.10;nan
12197;BME280;6161;43.014;25.840;2022-09-12T13:13:25;99237.16;;;25.10;nan
12197;BME280;6161;43.014;25.840;2022-09-12T13:15:54;99233.00;;;25.08;nan
12197;BME280;6161;43.014;25.840;2022-09-12T13:18:23;99214.03;;;25.06;nan
12197;BME280;6161;43.014;25.840;2022-09-12T13:23:39;99211.41;;;24.95;nan
12197;BME280;6161;43.014;25.840;2022-09-12T13:26:22;99241.84;;;24.93;nan
12197;BME280;6161;43.014;25.840;2022-09-12T13:28:48;99238.84;;;24.95;nan
12197;BME280;6161;43.014;25.840;2022-09-12T13:31:22;99227.88;;;24.95;nan
12197;BME280;6161;43.014;25.840;2022-09-12T13:33:57;99204.25;;;24.93;nan
12197;BME280;6161;43.014;25.840;2022-09-12T13:39:28;99230.34;;;24.96;nan
12197;BME280;6161;43.014;25.840;2022-09-12T13:44:57;99186.72;;;24.95;nan
12197;BME280;6161;43.014;25.840;2022-09-12T13:47:46;99226.19;;;24.93;nan
12197;BME280;6161;43.014;25.840;2022-09-12T13:50:19;99203.66;;;24.91;nan
12197;BME280;6161;43.014;25.840;2022-09-12T13:52:58;99235.53;;;24.76;nan
12197;BME280;6161;43.014;25.840;2022-09-12T13:55:33;99220.22;;;24.63;nan
12197;BME280;6161;43.014;25.840;2022-09-12T13:58:06;99213.41;;;24.48;nan
12197;BME280;6161;43.014;25.840;2022-09-12T14:03:24;99205.56;;;24.40;nan
12197;BME280;6161;43.014;25.840;2022-09-12T14:08:38;99224.47;;;24.42;nan
12197;BME280;6161;43.014;25.840;2022-09-12T14:11:17;99218.00;;;24.31;nan
12197;BME280;6161;43.014;25.840;2022-09-12T14:13:45;99240.94;;;24.42;nan
12197;BME280;6161;43.014;25.840;2022-09-12T14:16:11;99248.91;;;24.43;nan
12197;BME280;6161;43.014;25.840;2022-09-12T14:18:37;99230.09;;;24.47;nan
12197;BME280;6161;43.014;25.840;2022-09-12T14:21:09;99206.97;;;24.43;nan
12197;BME280;6161;43.014;25.840;2022-09-12T14:26:08;99288.31;;;24.37;nan
12197;BME280;6161;43.014;25.840;2022-09-12T14:28:38;99213.19;;;24.38;nan
12197;BME280;6161;43.014;25.840;2022-09-12T14:33:53;99243.13;;;24.40;nan
12197;BME280;6161;43.014;25.840;2022-09-12T14:36:23;99224.47;;;24.42;nan
12197;BME280;6161;43.014;25.840;2022-09-12T14:38:57;99245.50;;;24.36;nan
12197;BME280;6161;43.014;25.840;2022-09-12T14:41:29;99229.28;;;24.35;nan
12197;BME280;6161;43.014;25.840;2022-09-12T14:44:01;99249.16;;;24.25;nan
12197;BME280;6161;43.014;25.840;2022-09-12T14:46:37;99238.41;;;24.23;nan
12197;BME280;6161;43.014;25.840;2022-09-12T14:49:27;99198.94;;;24.24;nan
12197;BME280;6161;43.014;25.840;2022-09-12T14:51:56;99207.34;;;24.18;nan
12197;BME280;6161;43.014;25.840;2022-09-12T15:07:34;99205.97;;;24.03;nan
12197;BME280;6161;43.014;25.840;2022-09-12T15:10:30;99235.28;;;24.03;nan
12197;BME280;6161;43.014;25.840;2022-09-12T15:15:35;99241.38;;;24.05;nan
12197;BME280;6161;43.014;25.840;2022-09-12T15:18:00;99209.53;;;24.04;nan
12197;BME280;6161;43.014;25.840;2022-09-12T15:22:51;99239.81;;;23.97;nan
12197;BME280;6161;43.014;25.840;2022-09-12T15:25:17;99227.53;;;24.00;nan
12197;BME280;6161;43.014;25.840;2022-09-12T15:27:44;99293.88;;;24.02;nan
12197;BME280;6161;43.014;25.840;2022-09-12T15:30:11;99193.84;;;23.99;nan
12197;BME280;6161;43.014;25.840;2022-09-12T15:32:38;99277.97;;;23.87;nan
12197;BME280;6161;43.014;25.840;2022-09-12T15:37:40;99221.03;;;23.89;nan
12197;BME280;6161;43.014;25.840;2022-09-12T15:40:06;99208.75;;;23.92;nan
12197;BME280;6161;43.014;25.840;2022-09-12T15:44:57;99220.34;;;23.82;nan
12197;BME280;6161;43.014;25.840;2022-09-12T15:47:24;99188.78;;;23.79;nan
12197;BME280;6161;43.014;25.840;2022-09-12T15:49:50;99181.78;;;23.72;nan
12197;BME280;6161;43.014;25.840;2022-09-12T15:52:16;99217.84;;;23.69;nan
12197;BME280;6161;43.014;25.840;2022-09-12T15:54:42;99205.00;;;23.69;nan
12197;BME280;6161;43.014;25.840;2022-09-12T15:57:08;99204.28;;;23.62;nan
12197;BME280;6161;43.014;25.840;2022-09-12T15:59:34;99195.16;;;23.56;nan
12197;BME280;6161;43.014;25.840;2022-09-12T16:01:59;99233.88;;;23.48;nan
12197;BME280;6161;43.014;25.840;2022-09-12T16:04:28;99222.53;;;23.44;nan
12197;BME280;6161;43.014;25.840;2022-09-12T16:06:54;99243.13;;;23.47;nan
12197;BME280;6161;43.014;25.840;2022-09-12T16:14:20;99211.09;;;23.48;nan
12197;BME280;6161;43.014;25.840;2022-09-12T16:16:52;99215.75;;;23.47;nan
12197;BME280;6161;43.014;25.840;2022-09-12T16:19:18;99208.53;;;23.41;nan
12197;BME280;6161;43.014;25.840;2022-09-12T16:21:43;99241.09;;;23.42;nan
12197;BME280;6161;43.014;25.840;2022-09-12T16:24:09;99214.13;;;23.34;nan
12197;BME280;6161;43.014;25.840;2022-09-12T16:26:34;99241.72;;;23.44;nan
12197;BME280;6161;43.014;25.840;2022-09-12T16:29:00;99229.34;;;23.42;nan
12197;BME280;6161;43.014;25.840;2022-09-12T16:31:26;99235.06;;;23.40;nan
12197;BME280;6161;43.014;25.840;2022-09-12T16:36:19;99209.47;;;23.35;nan
12197;BME280;6161;43.014;25.840;2022-09-12T16:38:46;99235.41;;;23.32;nan
12197;BME280;6161;43.014;25.840;2022-09-12T16:41:13;99180.94;;;23.31;nan
12197;BME280;6161;43.014;25.840;2022-09-12T16:46:13;99256.38;;;23.27;nan
12197;BME280;6161;43.014;25.840;2022-09-12T16:51:25;99204.75;;;23.18;nan
12197;BME280;6161;43.014;25.840;2022-09-12T16:53:52;99247.31;;;23.14;nan
12197;BME280;6161;43.014;25.840;2022-09-12T16:56:18;99219.03;;;23.09;nan
12197;BME280;6161;43.014;25.840;2022-09-12T16:58:43;99262.69;;;23.04;nan
12197;BME280;6161;43.014;25.840;2022-09-12T17:01:14;99272.88;;;22.96;nan
12197;BME280;6161;43.014;25.840;2022-09-12T17:03:40;99258.81;;;22.81;nan
12197;BME280;6161;43.014;25.840;2022-09-12T17:06:25;99291.72;;;22.74;nan
12197;BME280;6161;43.014;25.840;2022-09-12T17:08:57;99282.78;;;22.67;nan
12197;BME280;6161;43.014;25.840;2022-09-12T17:11:34;99320.94;;;22.62;nan
12197;BME280;6161;43.014;25.840;2022-09-12T17:14:01;99318.28;;;22.55;nan
12197;BME280;6161;43.014;25.840;2022-09-12T17:18:52;99291.16;;;22.42;nan
12197;BME280;6161;43.014;25.840;2022-09-12T17:21:19;99277.22;;;22.32;nan
12197;BME280;6161;43.014;25.840;2022-09-12T17:23:45;99322.56;;;22.21;nan
12197;BME280;6161;43.014;25.840;2022-09-12T17:26:12;99275.78;;;22.11;nan
12197;BME280;6161;43.014;25.840;2022-09-12T17:28:38;99289.75;;;22.03;nan
12197;BME280;6161;43.014;25.840;2022-09-12T17:33:33;99277.72;;;21.92;nan
12197;BME280;6161;43.014;25.840;2022-09-12T17:40:50;99338.22;;;21.70;nan
12197;BME280;6161;43.014;25.840;2022-09-12T17:43:15;99296.16;;;21.60;nan
12197;BME280;6161;43.014;25.840;2022-09-12T17:48:08;99277.56;;;21.50;nan
12197;BME280;6161;43.014;25.840;2022-09-12T17:50:39;99264.59;;;21.45;nan
12197;BME280;6161;43.014;25.840;2022-09-12T17:55:34;99346.72;;;21.37;nan